Time;durP1;ratioP1;P1;durP2;ratioP2;P2;SDS_P1;SDS_P2;PMS_P1;PMS_P2;Temp;Humidity;BMP_temperature;BMP_pressure;BME280_temperature;BME280_humidity;BME280_pressure;Samples;Min_cycle;Max_cycle;Signal;HPM_P1;HPM_P2
2022/01/07 00:03:04;;;;;;;23.90;10.30;;;11.60;99.10;;;;;;10217101;29;20269;-93
2022/01/07 00:08:06;;;;;;;19.17;9.57;;;11.30;97.50;;;;;;10218708;29;20261;-92
2022/01/07 00:13:09;;;;;;;16.07;7.37;;;11.00;99.90;;;;;;10218408;29;20206;-93
2022/01/07 00:18:12;;;;;;;11.90;7.00;;;11.20;99.90;;;;;;10217792;29;20257;-92
2022/01/07 00:23:14;;;;;;;14.23;7.90;;;11.50;99.90;;;;;;10217819;29;20234;-93
2022/01/07 00:28:18;;;;;;;17.47;9.00;;;11.40;99.40;;;;;;10217935;29;20205;-92
2022/01/07 00:33:21;;;;;;;13.43;7.70;;;11.10;99.90;;;;;;10184421;29;20222;-93
2022/01/07 00:38:24;;;;;;;11.27;7.33;;;11.20;99.90;;;;;;10217210;29;20235;-93
2022/01/07 00:43:26;;;;;;;14.97;8.20;;;11.30;99.90;;;;;;10217328;29;20257;-93
2022/01/07 00:48:29;;;;;;;23.10;10.77;;;11.50;99.90;;;;;;10217092;29;20246;-93
2022/01/07 00:53:31;;;;;;;15.10;8.57;;;11.30;99.30;;;;;;10217186;29;20286;-93
2022/01/07 00:58:34;;;;;;;13.63;7.53;;;11.20;99.90;;;;;;10200105;29;20214;-92
2022/01/07 01:03:36;;;;;;;13.23;8.27;;;11.30;99.90;;;;;;10215590;29;20211;-93
2022/01/07 01:08:39;;;;;;;12.07;7.50;;;11.60;99.90;;;;;;10216246;29;20622;-93
2022/01/07 01:13:41;;;;;;;13.33;7.87;;;11.80;99.90;;;;;;10216560;29;20285;-93
2022/01/07 01:18:44;;;;;;;18.80;10.03;;;12.00;99.50;;;;;;10213803;29;20630;-93
2022/01/07 01:23:46;;;;;;;15.70;8.40;;;12.00;98.70;;;;;;10215492;29;20278;-93
2022/01/07 01:28:49;;;;;;;12.83;8.10;;;11.80;98.90;;;;;;10215560;29;20278;-93
2022/01/07 01:33:51;;;;;;;22.93;11.23;;;11.90;98.90;;;;;;10215395;29;20782;-92
2022/01/07 01:38:59;;;;;;;14.07;7.47;;;11.80;98.70;;;;;;10215244;29;20254;-93
2022/01/07 01:44:02;;;;;;;23.60;11.23;;;11.90;98.90;;;;;;10197984;29;20215;-93
2022/01/07 01:49:05;;;;;;;15.03;8.63;;;11.50;96.50;;;;;;10214054;29;20267;-93
2022/01/07 01:54:07;;;;;;;16.00;9.30;;;10.90;99.50;;;;;;10214457;29;20723;-93
2022/01/07 01:59:10;;;;;;;14.07;7.80;;;11.20;99.90;;;;;;10214459;29;20551;-93
2022/01/07 02:04:14;;;;;;;12.60;7.03;;;11.70;99.90;;;;;;10212099;29;20215;-93
2022/01/07 02:09:19;;;;;;;13.33;6.67;;;12.10;99.40;;;;;;10197087;29;20214;-93
2022/01/07 02:14:21;;;;;;;17.83;10.20;;;12.00;99.10;;;;;;10214091;29;20282;-93
2022/01/07 02:19:24;;;;;;;14.70;8.03;;;11.70;98.40;;;;;;10213731;29;20215;-93
2022/01/07 02:24:26;;;;;;;16.60;8.63;;;11.40;99.90;;;;;;10196643;29;20707;-93
2022/01/07 02:29:29;;;;;;;22.90;10.80;;;11.40;99.90;;;;;;10197050;29;20212;-93
2022/01/07 02:34:32;;;;;;;16.77;7.53;;;10.80;94.30;;;;;;10213071;29;20291;-92
2022/01/07 02:39:34;;;;;;;14.93;7.60;;;10.90;99.90;;;;;;10212290;29;20238;-93
2022/01/07 02:44:37;;;;;;;21.30;9.10;;;11.00;99.90;;;;;;10213250;29;20205;-92
2022/01/07 02:49:40;;;;;;;17.63;8.93;;;10.50;99.90;;;;;;10213027;29;20219;-93
2022/01/07 02:54:43;;;;;;;18.27;10.53;;;10.50;99.90;;;;;;10212104;29;20240;-92
2022/01/07 02:59:45;;;;;;;17.00;9.27;;;10.10;99.90;;;;;;10197540;29;20214;-92
2022/01/07 03:04:47;;;;;;;12.73;8.00;;;9.80;99.90;;;;;;10220747;29;20220;-93
2022/01/07 03:09:50;;;;;;;13.67;6.70;;;11.10;99.90;;;;;;10220766;29;20217;-93
2022/01/07 03:14:53;;;;;;;15.73;8.97;;;11.60;99.90;;;;;;10220873;29;20696;-93
2022/01/07 03:19:55;;;;;;;15.53;8.97;;;11.40;99.90;;;;;;10219219;29;20690;-93
2022/01/07 03:24:57;;;;;;;13.33;6.97;;;11.70;99.70;;;;;;10220130;29;20287;-92
2022/01/07 03:30:00;;;;;;;14.57;7.37;;;11.60;99.80;;;;;;10219890;29;20209;-93
2022/01/07 03:35:07;;;;;;;12.90;7.00;;;11.70;99.90;;;;;;10219783;29;20304;-93
2022/01/07 03:40:12;;;;;;;11.20;7.07;;;11.70;99.90;;;;;;10219814;29;20566;-93
2022/01/07 03:45:15;;;;;;;11.90;7.17;;;11.80;99.90;;;;;;10219560;29;20211;-92
2022/01/07 03:50:21;;;;;;;19.50;8.83;;;12.00;99.00;;;;;;10218016;29;20279;-93
2022/01/07 03:55:28;;;;;;;12.73;8.10;;;11.50;98.40;;;;;;10219113;29;20227;-93
2022/01/07 04:00:34;;;;;;;12.83;8.60;;;11.30;99.90;;;;;;10218941;29;20206;-93
2022/01/07 04:05:37;;;;;;;18.83;10.40;;;11.00;98.70;;;;;;10201710;29;20245;-92
2022/01/07 04:10:41;;;;;;;12.27;7.13;;;10.50;95.30;;;;;;10201028;29;20224;-93
2022/01/07 04:15:44;;;;;;;12.60;6.37;;;11.00;99.90;;;;;;10185278;29;20633;-93
2022/01/07 04:20:47;;;;;;;19.43;10.53;;;11.10;99.90;;;;;;10217475;29;20211;-93
2022/01/07 04:25:49;;;;;;;13.73;7.80;;;10.80;92.00;;;;;;10217920;29;20280;-93
2022/01/07 04:30:52;;;;;;;19.17;9.73;;;10.20;99.90;;;;;;10217901;29;20214;-93
2022/01/07 04:35:55;;;;;;;13.00;7.53;;;10.40;98.70;;;;;;10216198;29;20575;-93
2022/01/07 04:40:57;;;;;;;18.33;9.50;;;10.90;99.90;;;;;;10199696;29;20210;-92
2022/01/07 04:46:00;;;;;;;10.73;6.73;;;10.80;99.30;;;;;;10217102;29;20623;-92
2022/01/07 04:51:03;;;;;;;12.23;6.97;;;11.10;99.90;;;;;;10200118;29;20215;-92
2022/01/07 04:56:05;;;;;;;11.03;6.57;;;10.90;99.90;;;;;;10216729;29;20238;-93
2022/01/07 05:01:08;;;;;;;16.17;8.70;;;11.00;99.90;;;;;;10216684;29;20638;-93
2022/01/07 05:11:22;;;;;;;12.60;8.17;;;10.90;99.90;;;;;;10215896;29;20626;-91
2022/01/07 05:16:26;;;;;;;10.90;6.77;;;10.90;99.90;;;;;;10216139;29;20233;-93
2022/01/07 05:21:28;;;;;;;16.23;8.53;;;11.20;99.90;;;;;;10215724;29;20241;-92
2022/01/07 05:26:32;;;;;;;12.30;6.83;;;11.40;99.90;;;;;;10215502;29;20632;-93
2022/01/07 05:31:34;;;;;;;24.07;14.07;;;11.30;99.90;;;;;;10197869;29;20756;-93
2022/01/07 05:36:38;;;;;;;11.67;7.27;;;10.80;98.80;;;;;;10215133;29;20233;-93
2022/01/07 05:41:40;;;;;;;10.90;7.20;;;10.60;99.90;;;;;;10214812;29;20205;-92
2022/01/07 05:46:43;;;;;;;12.40;7.70;;;10.50;99.90;;;;;;10213380;29;20221;-93
2022/01/07 05:51:46;;;;;;;12.07;7.63;;;11.00;99.90;;;;;;10214678;29;20683;-92
2022/01/07 05:56:48;;;;;;;16.03;8.27;;;10.70;99.90;;;;;;10213258;29;20230;-92
2022/01/07 06:01:50;;;;;;;11.73;7.23;;;10.20;99.90;;;;;;10214406;29;20213;-93
2022/01/07 06:06:53;;;;;;;17.43;10.00;;;10.20;99.90;;;;;;10213915;29;20263;-93
2022/01/07 06:11:55;;;;;;;18.20;11.07;;;9.60;98.30;;;;;;10213927;29;20239;-92
2022/01/07 06:16:58;;;;;;;22.20;12.73;;;9.70;93.90;;;;;;10213670;29;20589;-92
2022/01/07 06:22:00;;;;;;;10.27;7.03;;;9.40;99.90;;;;;;10213489;29;20217;-93
2022/01/07 06:27:03;;;;;;;14.37;9.30;;;9.40;99.90;;;;;;10213722;29;20590;-93
2022/01/07 06:32:07;;;;;;;15.70;9.57;;;9.10;99.30;;;;;;10213421;29;20218;-92
2022/01/07 06:37:11;;;;;;;13.53;9.20;;;8.80;99.90;;;;;;10211558;29;20295;-92
2022/01/07 06:42:13;;;;;;;16.03;8.90;;;8.60;97.90;;;;;;10213209;29;20673;-93
2022/01/07 06:47:16;;;;;;;19.53;11.00;;;8.90;99.90;;;;;;10213982;29;20205;-92
2022/01/07 06:52:18;;;;;;;13.37;8.57;;;8.90;99.60;;;;;;10210811;29;20294;-92
2022/01/07 06:57:21;;;;;;;11.43;7.70;;;8.70;99.90;;;;;;10195649;29;20645;-92
2022/01/07 07:02:23;;;;;;;16.40;9.83;;;9.40;99.90;;;;;;10211337;29;20205;-92
2022/01/07 07:07:26;;;;;;;19.90;10.17;;;9.50;99.90;;;;;;10211107;29;20220;-92
2022/01/07 07:12:28;;;;;;;11.77;7.90;;;9.80;99.90;;;;;;10212389;29;20211;-92
2022/01/07 07:17:34;;;;;;;20.57;11.13;;;9.90;99.90;;;;;;10210191;29;20575;-93
2022/01/07 07:22:37;;;;;;;14.70;8.70;;;10.00;99.90;;;;;;10211909;29;20253;-93
2022/01/07 07:27:41;;;;;;;12.67;8.30;;;9.80;99.90;;;;;;10210346;29;20209;-91
2022/01/07 07:32:43;;;;;;;32.53;18.23;;;9.80;99.90;;;;;;10212090;29;20559;-93
2022/01/07 07:37:47;;;;;;;21.37;11.00;;;9.70;96.20;;;;;;10195095;29;20227;-92
2022/01/07 07:42:50;;;;;;;15.57;10.30;;;8.50;99.90;;;;;;10210336;29;20252;-92
2022/01/07 07:47:53;;;;;;;20.80;10.23;;;8.50;99.90;;;;;;10198160;29;20260;-93
2022/01/07 07:52:56;;;;;;;16.40;10.10;;;7.30;99.90;;;;;;10202065;29;20289;-92
2022/01/07 07:57:58;;;;;;;20.03;10.93;;;7.70;99.90;;;;;;10201110;29;20234;-93
2022/01/07 08:03:01;;;;;;;21.57;12.20;;;7.90;99.90;;;;;;10218721;29;20306;-91
2022/01/07 08:08:04;;;;;;;16.30;9.33;;;8.20;99.60;;;;;;10201751;29;20215;-92
2022/01/07 08:18:09;;;;;;;20.50;10.47;;;8.30;99.90;;;;;;10216152;29;20237;-92
2022/01/07 08:23:12;;;;;;;15.80;9.67;;;9.00;99.90;;;;;;10201158;29;20231;-91
2022/01/07 08:28:16;;;;;;;22.50;14.43;;;8.30;99.90;;;;;;10201082;29;20238;-92
2022/01/07 08:38:39;;;;;;;16.03;9.27;;;7.50;99.40;;;;;;10217202;29;20235;-91
2022/01/07 08:43:43;;;;;;;16.60;8.67;;;8.20;99.90;;;;;;10216006;29;20203;-91
2022/01/07 08:48:45;;;;;;;25.10;12.97;;;8.70;99.90;;;;;;10199468;29;20211;-92
2022/01/07 08:53:48;;;;;;;14.40;8.70;;;7.10;94.90;;;;;;10215396;29;20208;-91
2022/01/07 08:58:52;;;;;;;21.93;12.27;;;8.90;99.90;;;;;;10198413;29;20287;-92
2022/01/07 09:03:55;;;;;;;32.03;16.07;;;8.70;99.10;;;;;;10198623;29;20215;-90
2022/01/07 09:08:57;;;;;;;10.50;6.97;;;8.20;94.30;;;;;;10214521;29;20214;-91
2022/01/07 09:14:00;;;;;;;19.80;11.00;;;7.80;99.90;;;;;;10214714;29;20207;-92
2022/01/07 09:19:03;;;;;;;21.93;13.37;;;7.30;96.90;;;;;;10198563;29;20231;-91
2022/01/07 09:24:05;;;;;;;14.10;9.33;;;7.30;95.40;;;;;;10215447;29;20227;-91
2022/01/07 09:29:08;;;;;;;14.60;8.33;;;7.20;99.90;;;;;;10215533;29;20352;-92
2022/01/07 09:34:10;;;;;;;12.37;8.20;;;7.70;99.90;;;;;;10215553;29;20216;-91
2022/01/07 09:39:30;;;;;;;11.93;8.20;;;8.30;99.90;;;;;;10213145;29;20235;-92
2022/01/07 09:44:41;;;;;;;24.57;12.77;;;7.60;99.90;;;;;;10197796;29;20680;-92
2022/01/07 09:49:43;;;;;;;29.87;13.87;;;7.30;91.60;;;;;;10215410;29;20207;-92
2022/01/07 09:54:47;;;;;;;60.17;18.20;;;8.10;99.90;;;;;;10198273;29;20219;-92
2022/01/07 09:59:54;;;;;;;34.30;12.03;;;6.70;91.50;;;;;;10200504;29;20230;-93
2022/01/07 10:04:56;;;;;;;22.40;11.20;;;7.80;99.90;;;;;;10214072;29;20215;-92
2022/01/07 10:10:06;;;;;;;18.33;9.73;;;8.30;99.90;;;;;;10213004;29;20211;-93
2022/01/07 10:15:17;;;;;;;25.07;11.20;;;8.80;99.90;;;;;;10212955;29;20258;-93
2022/01/07 10:20:23;;;;;;;9.47;6.50;;;8.10;94.20;;;;;;10213668;29;20573;-91
2022/01/07 10:25:37;;;;;;;20.47;11.43;;;8.70;99.90;;;;;;10197045;29;20227;-91
2022/01/07 10:30:44;;;;;;;23.83;11.53;;;7.90;90.80;;;;;;10212424;29;20672;-92
2022/01/07 10:35:55;;;;;;;28.50;13.77;;;6.50;94.00;;;;;;10213470;29;20262;-92
2022/01/07 10:41:01;;;;;;;24.17;13.03;;;7.20;99.90;;;;;;10213240;29;20235;-92
2022/01/07 10:46:19;;;;;;;14.00;7.97;;;8.00;94.30;;;;;;10211802;29;20215;-93
2022/01/07 10:51:29;;;;;;;19.43;9.70;;;7.50;99.90;;;;;;10196053;29;20591;-92
2022/01/07 10:56:40;;;;;;;23.60;11.63;;;9.50;99.90;;;;;;10213323;29;20227;-93
2022/01/07 11:01:45;;;;;;;24.60;12.37;;;7.70;98.50;;;;;;10211150;29;20601;-92
2022/01/07 11:06:53;;;;;;;20.57;11.03;;;7.10;95.50;;;;;;10211241;29;20266;-94
2022/01/07 11:11:58;;;;;;;22.83;11.13;;;5.80;96.50;;;;;;10213058;29;20203;-94
2022/01/07 11:17:04;;;;;;;23.77;8.90;;;5.10;92.10;;;;;;10195801;29;20231;-93
2022/01/07 11:22:11;;;;;;;17.07;8.17;;;5.10;93.40;;;;;;10183309;29;20231;-93
2022/01/07 11:27:16;;;;;;;17.43;8.33;;;5.40;99.90;;;;;;10187646;29;20583;-93
2022/01/07 11:32:25;;;;;;;57.83;14.00;;;5.00;99.90;;;;;;10218838;29;20274;-93
2022/01/07 11:37:35;;;;;;;15.20;8.20;;;5.20;97.10;;;;;;10202585;29;20227;-94
2022/01/07 11:42:43;;;;;;;13.50;8.67;;;5.00;99.90;;;;;;10219124;29;20203;-94
2022/01/07 11:47:49;;;;;;;18.07;9.60;;;5.30;99.90;;;;;;10202707;29;20215;-93
2022/01/07 11:53:02;;;;;;;16.03;8.73;;;5.80;99.90;;;;;;10218552;29;20207;-93
2022/01/07 11:58:07;;;;;;;22.73;10.53;;;5.00;95.80;;;;;;10201490;29;20604;-93
2022/01/07 12:03:10;;;;;;;18.73;9.50;;;4.40;99.40;;;;;;10219160;29;20199;-92
2022/01/07 12:08:12;;;;;;;23.00;11.73;;;4.70;98.50;;;;;;10217524;29;20220;-92
2022/01/07 12:13:15;;;;;;;17.63;9.63;;;5.30;99.50;;;;;;10217461;29;20575;-92
2022/01/07 12:18:17;;;;;;;47.37;14.10;;;4.80;99.90;;;;;;10217991;29;20259;-93
2022/01/07 12:23:21;;;;;;;19.80;10.97;;;5.40;99.90;;;;;;10216972;29;20282;-92
2022/01/07 12:28:24;;;;;;;15.23;8.40;;;5.30;99.90;;;;;;10217903;29;20215;-92
2022/01/07 12:33:26;;;;;;;124.93;22.63;;;5.20;99.50;;;;;;10215900;29;20215;-93
2022/01/07 12:38:28;;;;;;;21.23;11.53;;;5.10;98.00;;;;;;10217524;29;20263;-92
2022/01/07 12:43:34;;;;;;;27.17;13.43;;;5.40;99.90;;;;;;10217276;29;20210;-93
2022/01/07 12:48:39;;;;;;;25.53;12.70;;;5.30;99.90;;;;;;10216449;29;20302;-92
2022/01/07 12:53:56;;;;;;;25.70;12.70;;;5.30;98.80;;;;;;10217074;29;20215;-93
2022/01/07 12:59:17;;;;;;;22.87;11.17;;;5.00;93.60;;;;;;10215522;29;20230;-92
2022/01/07 13:04:22;;;;;;;19.87;11.13;;;4.50;94.10;;;;;;10216336;29;20211;-92
2022/01/07 13:09:29;;;;;;;23.37;12.03;;;4.90;99.90;;;;;;10216323;29;20219;-92
2022/01/07 13:14:31;;;;;;;29.03;11.20;;;4.40;96.10;;;;;;10214318;29;20211;-92
2022/01/07 13:19:43;;;;;;;20.77;11.30;;;4.20;96.90;;;;;;10214075;29;20262;-92
2022/01/07 13:24:46;;;;;;;24.00;10.93;;;4.30;99.90;;;;;;10198347;29;20727;-92
2022/01/07 13:29:49;;;;;;;20.43;10.03;;;4.60;99.90;;;;;;10197906;29;20267;-92
2022/01/07 13:34:52;;;;;;;23.37;10.30;;;4.30;99.90;;;;;;10197319;29;20692;-91
2022/01/07 13:39:55;;;;;;;16.93;10.13;;;4.50;99.90;;;;;;10214798;29;20641;-92
2022/01/07 13:45:03;;;;;;;22.37;11.93;;;4.50;97.80;;;;;;10214926;29;20568;-91
2022/01/07 13:50:27;;;;;;;18.23;9.97;;;4.30;99.90;;;;;;10214356;29;20215;-90
2022/01/07 13:55:33;;;;;;;18.10;9.77;;;4.40;99.90;;;;;;10196988;29;20274;-92
2022/01/07 14:00:40;;;;;;;22.77;13.77;;;4.10;99.90;;;;;;10214058;29;20239;-90
2022/01/07 14:05:43;;;;;;;57.33;12.37;;;4.40;99.90;;;;;;10196520;29;20239;-91
2022/01/07 14:10:47;;;;;;;23.53;10.27;;;4.40;99.90;;;;;;10215124;29;20287;-92
2022/01/07 14:15:54;;;;;;;44.63;14.67;;;5.10;99.90;;;;;;10212153;29;20223;-91
2022/01/07 14:21:03;;;;;;;11.70;7.93;;;5.50;99.90;;;;;;10213606;29;20715;-92
2022/01/07 14:26:09;;;;;;;17.07;9.13;;;6.50;99.90;;;;;;10213301;29;20231;-92
2022/01/07 14:31:13;;;;;;;24.23;12.47;;;7.00;99.90;;;;;;10196517;29;20600;-93
2022/01/07 14:36:16;;;;;;;12.57;8.10;;;7.10;99.90;;;;;;10211888;29;20267;-91
2022/01/07 14:41:20;;;;;;;15.80;10.27;;;7.80;99.90;;;;;;10212891;29;20235;-92
2022/01/07 14:46:23;;;;;;;18.23;10.67;;;7.70;99.90;;;;;;10195715;29;20270;-91
2022/01/07 14:51:26;;;;;;;12.43;7.53;;;7.70;99.90;;;;;;10212617;29;20587;-92
2022/01/07 14:56:28;;;;;;;24.40;12.53;;;7.70;99.90;;;;;;10218190;29;20202;-91
2022/01/07 15:01:30;;;;;;;25.87;13.73;;;7.10;99.90;;;;;;10225862;29;20226;-92
2022/01/07 15:06:34;;;;;;;25.03;13.87;;;6.40;95.70;;;;;;10225611;29;20274;-92
2022/01/07 15:11:36;;;;;;;17.77;12.27;;;5.80;99.90;;;;;;10224625;29;20752;-92
2022/01/07 15:16:44;;;;;;;24.47;14.37;;;5.90;99.90;;;;;;10223548;29;20262;-92
2022/01/07 15:21:47;;;;;;;33.00;16.07;;;6.10;99.90;;;;;;10208024;29;20214;-91
2022/01/07 15:26:50;;;;;;;27.27;14.50;;;5.90;99.90;;;;;;10192402;29;20638;-92
2022/01/07 15:31:53;;;;;;;21.90;12.10;;;5.90;98.10;;;;;;10225732;29;20231;-91
2022/01/07 15:36:56;;;;;;;31.43;17.47;;;6.20;99.90;;;;;;10208231;29;20286;-91
2022/01/07 15:41:58;;;;;;;21.17;12.17;;;6.50;99.90;;;;;;10223114;29;20286;-92
2022/01/07 15:47:01;;;;;;;29.43;17.07;;;6.70;99.90;;;;;;10223226;29;20250;-92
2022/01/07 15:52:04;;;;;;;34.17;18.80;;;6.70;99.90;;;;;;10224670;29;20203;-92
2022/01/07 15:57:09;;;;;;;33.87;18.10;;;6.50;95.30;;;;;;10224653;29;20215;-91
2022/01/07 16:02:12;;;;;;;31.10;14.77;;;6.50;99.90;;;;;;10208127;29;20199;-92
2022/01/07 16:07:14;;;;;;;45.97;23.20;;;6.40;99.90;;;;;;10220674;29;20215;-92
2022/01/07 16:12:17;;;;;;;26.10;14.20;;;6.10;96.30;;;;;;10217711;29;20265;-93
2022/01/07 16:17:19;;;;;;;32.53;16.70;;;6.50;99.90;;;;;;10218043;29;20631;-92
2022/01/07 16:22:22;;;;;;;38.07;19.97;;;6.20;99.90;;;;;;10217570;29;20223;-92
2022/01/07 16:27:24;;;;;;;40.23;21.60;;;6.10;99.90;;;;;;10201216;29;20591;-92
2022/01/07 16:32:27;;;;;;;34.87;20.30;;;5.60;97.30;;;;;;10218105;29;20211;-93
2022/01/07 16:37:30;;;;;;;40.50;20.50;;;5.80;99.90;;;;;;10217846;29;20211;-93
2022/01/07 16:42:32;;;;;;;37.97;19.80;;;5.80;99.90;;;;;;10216274;29;20198;-93
2022/01/07 16:47:35;;;;;;;39.03;18.23;;;5.50;96.80;;;;;;10200320;29;20215;-93
2022/01/07 16:52:37;;;;;;;39.17;21.97;;;5.50;99.90;;;;;;10215387;29;20826;-92
2022/01/07 16:57:40;;;;;;;36.13;18.53;;;5.40;99.30;;;;;;10216890;29;20223;-92
2022/01/07 17:02:43;;;;;;;30.43;17.90;;;5.60;99.90;;;;;;10216893;29;20208;-92
2022/01/07 17:07:46;;;;;;;32.20;19.30;;;5.10;99.90;;;;;;10199539;29;20673;-92
2022/01/07 17:12:49;;;;;;;68.80;38.80;;;5.40;99.90;;;;;;10216592;29;20207;-92
2022/01/07 17:17:56;;;;;;;30.63;15.17;;;5.30;99.90;;;;;;10215276;29;20641;-92
2022/01/07 17:23:01;;;;;;;46.17;23.33;;;5.60;99.90;;;;;;10215749;29;20223;-92
2022/01/07 17:28:03;;;;;;;31.63;17.17;;;5.50;97.50;;;;;;10199229;29;20595;-93
2022/01/07 17:33:06;;;;;;;19.50;10.40;;;5.30;99.90;;;;;;10215597;29;20215;-93
2022/01/07 17:38:08;;;;;;;32.63;17.53;;;6.20;99.90;;;;;;10198312;29;20223;-94
2022/01/07 17:43:11;;;;;;;39.03;19.93;;;6.10;99.90;;;;;;10215214;29;20680;-93
2022/01/07 17:48:13;;;;;;;33.43;17.30;;;6.20;99.90;;;;;;10214930;29;20207;-92
2022/01/07 17:53:16;;;;;;;30.43;16.10;;;6.60;99.90;;;;;;10214894;29;20274;-93
2022/01/07 17:58:19;;;;;;;25.10;14.43;;;7.00;99.90;;;;;;10214639;29;20645;-93
2022/01/07 18:03:22;;;;;;;24.13;13.97;;;6.60;99.90;;;;;;10215758;29;20566;-91
2022/01/07 18:08:24;;;;;;;20.10;12.23;;;6.50;99.90;;;;;;10196924;29;20215;-91
2022/01/07 18:13:27;;;;;;;27.47;14.63;;;6.80;99.90;;;;;;10214123;29;20207;-92
2022/01/07 18:18:41;;;;;;;22.27;11.00;;;7.10;99.90;;;;;;10196716;29;20234;-89
2022/01/07 18:23:44;;;;;;;24.97;14.43;;;7.40;99.90;;;;;;10212581;29;20223;-92
2022/01/07 18:28:46;;;;;;;25.47;14.20;;;7.40;98.70;;;;;;10213607;29;20215;-91
2022/01/07 18:33:49;;;;;;;24.93;15.77;;;7.10;98.60;;;;;;10212670;29;20211;-92
2022/01/07 18:38:52;;;;;;;29.53;15.30;;;7.00;99.90;;;;;;10212276;29;20306;-91
2022/01/07 18:43:55;;;;;;;26.13;14.53;;;7.50;99.10;;;;;;10213667;29;20746;-91
2022/01/07 18:48:57;;;;;;;26.17;16.17;;;7.00;94.10;;;;;;10211543;29;20211;-91
2022/01/07 18:53:59;;;;;;;20.87;12.27;;;6.60;97.00;;;;;;10211885;29;20214;-91
2022/01/07 18:59:03;;;;;;;20.57;11.33;;;6.70;99.90;;;;;;10196196;29;20231;-91
2022/01/07 19:04:05;;;;;;;19.37;10.83;;;6.70;99.90;;;;;;10196096;29;20235;-91
2022/01/07 19:09:08;;;;;;;20.27;11.53;;;6.30;99.90;;;;;;10212938;29;20207;-91
2022/01/07 19:14:11;;;;;;;24.90;13.70;;;6.70;99.90;;;;;;10195709;29;20218;-91
2022/01/07 19:19:13;;;;;;;28.10;14.90;;;7.10;99.90;;;;;;10212600;29;20226;-92
2022/01/07 19:24:16;;;;;;;24.23;13.57;;;7.20;99.90;;;;;;10212335;29;20231;-91
2022/01/07 19:29:18;;;;;;;24.87;14.23;;;7.20;99.60;;;;;;10195472;29;20274;-91
2022/01/07 19:34:21;;;;;;;24.47;11.97;;;6.60;99.50;;;;;;10194529;29;20215;-91
2022/01/07 19:39:23;;;;;;;23.40;12.10;;;6.70;99.90;;;;;;10211186;29;20262;-91
2022/01/07 19:44:26;;;;;;;17.27;9.67;;;8.00;99.90;;;;;;10200795;29;20211;-91
2022/01/07 19:49:29;;;;;;;12.97;8.07;;;9.50;99.90;;;;;;10219439;29;20215;-92
2022/01/07 19:54:32;;;;;;;23.03;12.30;;;9.30;99.90;;;;;;10219695;29;20211;-91
2022/01/07 19:59:36;;;;;;;22.27;11.67;;;9.10;99.90;;;;;;10202564;29;20591;-91
2022/01/07 20:04:39;;;;;;;13.57;7.40;;;9.90;99.90;;;;;;10219000;29;20211;-91
2022/01/07 20:09:43;;;;;;;23.10;12.20;;;8.60;99.90;;;;;;10217845;29;20547;-92
2022/01/07 20:14:47;;;;;;;23.27;13.97;;;8.10;99.80;;;;;;10218706;29;20580;-92
2022/01/07 20:19:50;;;;;;;29.90;16.93;;;6.90;94.70;;;;;;10217940;29;20226;-92
2022/01/07 20:24:52;;;;;;;27.60;14.30;;;8.50;93.60;;;;;;10218384;29;20657;-92
2022/01/07 20:29:55;;;;;;;21.47;12.87;;;8.00;96.70;;;;;;10216172;29;20625;-91
2022/01/07 20:34:58;;;;;;;20.70;12.37;;;7.00;99.90;;;;;;10216706;29;20696;-91
2022/01/07 20:40:01;;;;;;;13.00;9.30;;;6.70;99.90;;;;;;10217799;29;20227;-91
2022/01/07 20:45:04;;;;;;;12.43;9.40;;;7.00;99.90;;;;;;10200523;29;20231;-91
2022/01/07 20:50:08;;;;;;;26.80;13.23;;;6.40;99.90;;;;;;10215736;29;20223;-91
2022/01/07 20:55:11;;;;;;;20.20;10.80;;;6.20;99.90;;;;;;10199209;29;20219;-91
2022/01/07 21:00:16;;;;;;;27.17;14.67;;;5.90;99.90;;;;;;10217144;29;20298;-91
2022/01/07 21:05:19;;;;;;;25.50;12.10;;;7.30;99.90;;;;;;10199469;29;20262;-90
2022/01/07 21:10:22;;;;;;;21.20;11.73;;;7.30;99.90;;;;;;10215227;29;20219;-92
2022/01/07 21:15:24;;;;;;;14.60;9.27;;;7.40;99.90;;;;;;10199092;29;20215;-91
2022/01/07 21:20:26;;;;;;;21.30;13.50;;;8.20;99.90;;;;;;10216037;29;20593;-92
2022/01/07 21:25:29;;;;;;;24.47;14.43;;;7.20;99.90;;;;;;10199229;29;20278;-91
2022/01/07 21:30:32;;;;;;;24.73;14.97;;;6.60;99.90;;;;;;10216048;29;20235;-91
2022/01/07 21:35:36;;;;;;;24.97;14.60;;;6.50;99.90;;;;;;10198506;29;20247;-92
2022/01/07 21:40:38;;;;;;;31.00;16.73;;;6.90;99.90;;;;;;10214532;29;20574;-92
2022/01/07 21:45:41;;;;;;;18.23;10.87;;;7.00;99.90;;;;;;10215498;29;20207;-92
2022/01/07 21:50:45;;;;;;;24.20;14.57;;;6.60;99.90;;;;;;10197571;29;20617;-92
2022/01/07 21:55:47;;;;;;;19.50;12.27;;;6.40;99.90;;;;;;10215153;29;20211;-92
2022/01/07 22:00:51;;;;;;;25.20;13.63;;;6.20;99.90;;;;;;10214840;29;20306;-91
2022/01/07 22:05:54;;;;;;;21.90;12.70;;;6.20;99.90;;;;;;10212229;29;20271;-92
2022/01/07 22:10:57;;;;;;;26.83;14.23;;;7.20;99.90;;;;;;10214376;29;20762;-91
2022/01/07 22:16:00;;;;;;;23.90;12.37;;;7.20;97.50;;;;;;10196802;29;20211;-91
2022/01/07 22:21:02;;;;;;;12.70;8.20;;;6.00;99.90;;;;;;10214164;29;20235;-92
2022/01/07 22:26:05;;;;;;;16.43;10.77;;;6.60;99.90;;;;;;10214059;29;20227;-91
2022/01/07 22:31:08;;;;;;;17.60;10.53;;;6.90;99.90;;;;;;10196805;29;20219;-91
2022/01/07 22:36:11;;;;;;;18.97;11.73;;;7.00;99.90;;;;;;10213745;29;20207;-91
2022/01/07 22:41:13;;;;;;;27.03;14.53;;;6.40;99.90;;;;;;10212406;29;20231;-91
2022/01/07 22:46:16;;;;;;;21.37;12.17;;;6.50;99.90;;;;;;10213462;29;20203;-91
2022/01/07 22:51:19;;;;;;;16.67;12.17;;;6.70;99.90;;;;;;10213378;29;20211;-91
2022/01/07 22:56:21;;;;;;;16.00;11.33;;;6.50;99.90;;;;;;10196522;29;20242;-91
2022/01/07 23:01:24;;;;;;;10.97;7.20;;;7.30;99.90;;;;;;10212244;29;20238;-91
2022/01/07 23:06:26;;;;;;;20.40;13.53;;;7.80;99.90;;;;;;10213031;29;20215;-92
2022/01/07 23:11:29;;;;;;;12.70;8.43;;;7.00;99.90;;;;;;10211591;29;20210;-91
2022/01/07 23:16:33;;;;;;;20.77;11.40;;;7.50;99.90;;;;;;10197436;29;20271;-90
2022/01/07 23:21:37;;;;;;;18.70;12.30;;;7.70;99.90;;;;;;10219614;29;20234;-91
2022/01/07 23:26:39;;;;;;;20.63;13.00;;;7.30;99.90;;;;;;10203900;29;20255;-91
2022/01/07 23:31:41;;;;;;;19.00;11.80;;;6.80;99.90;;;;;;10203141;29;20243;-91
2022/01/07 23:36:44;;;;;;;18.07;11.80;;;6.70;99.90;;;;;;10202691;29;20755;-91
2022/01/07 23:41:47;;;;;;;14.63;8.03;;;6.60;99.90;;;;;;10219899;29;20231;-91
2022/01/07 23:46:49;;;;;;;19.43;12.30;;;7.70;99.90;;;;;;10202933;29;20297;-91
2022/01/07 23:51:52;;;;;;;20.93;12.00;;;7.10;99.90;;;;;;10203002;29;20239;-90
2022/01/07 23:56:55;;;;;;;22.30;11.80;;;6.70;99.90;;;;;;10219427;29;20207;-91
